Cuneo / Levaldigi Airport LIMZ

Flugplatz Daten

Name: Cuneo / Levaldigi Airport

Ident: LIMZ

Lat: 44,54700089

Long: 7,623219967

Platzhöhe: 1267 ft

IataCode: CUF

City: Cuneo

Homepage: http://www.aeroporto.cuneo.it/

Metar

2021/08/05 12:50
LIMZ 051250Z AUTO 12005KT 030V170 9999 NCD 29/06 Q1007

Taf

2021/08/05 12:21
TAF LIMZ 051100Z 0512/0612 12010KT 9999 FEW060
BECMG 0517/0519 VRB05KT
BECMG 0609/0611 03010KT
Gewünschte Webcam nicht vorhanden? Dann fügen Sie eine hinzu. Sie wird dann so schnell wie möglich freigeschaltet
Url: Title: